Terminal Aerodrome Forecast
Issued by NWS Blacksburg, VA

Current Version | Previous Version | Graphics & Text | Print | Product List | Glossary On
Versions: 1 2 3 4 5 6 7 8 9 10 11 12 13 14
000
FTUS41 KRNK 151135
TAFBLF
TAF
KBLF 151135Z 1512/1612 VRB03KT P6SM OVC030
     FM151900 28011G19KT P6SM SCT030
     FM152200 29012G20KT P6SM BKN040
     FM160200 29012G22KT P6SM BKN025
     FM161000 28011KT P6SM SCT025=

USA.gov is the U.S. government's official web portal to all federal, state and local government web resources and services.